Kyme — XUPY9 — position and weather

sailwx.info

Track history (hours):
 
Tides and Currents Weather Stations Pressure Air Temp Water Temp Dewpoint Dewpoint Depression Visibility Wind Speed Wind Dir Waves Ship Positions

Kyme

Last reported at 2014-Sep-11 02:32 UTC. Time now 2014-Sep-17 23:38 UTC.
Position N 46°33' E 032°16'.

Length 114 m; draft 2 m.

Type: Cargo ship. MMSI: 514283000.

Date/timePositionNaut miles runAvg speedWind from/ knotsBaromVisibWave heightAir tempDewpointWater temp
2014-Sep-11 02:32N 46°33' E 032°16'7 7.1
2014-Sep-11 01:33N 46°32' E 032°06'7 7.0
2014-Sep-11 00:33N 46°34' E 031°57'7 6.8
2014-Sep-10 23:33N 46°35' E 031°47'7 6.5
2014-Sep-10 22:26N 46°35' E 031°36'26 6.7
2014-Sep-10 18:29N 46°32' E 030°58'6 6.2
2014-Sep-10 17:33N 46°26' E 030°57'7 6.5
2014-Sep-10 16:28N 46°19' E 030°58'94 7.0
2014-Sep-10 03:03N 44°54' E 030°00'  
2014-Sep-05 16:31N 40°46' E 029°33'3 2.3
2014-Sep-05 15:22N 40°45' E 029°30'3 0.6
2014-Sep-05 10:20N 40°46' E 029°26'0 0.1
2014-Sep-05 09:14N 40°46' E 029°26'1 0.1
2014-Sep-05 04:10N 40°45' E 029°26'4 6.0
2014-Sep-05 03:33N 40°44' E 029°21'6 6.4
2014-Sep-05 02:33N 40°46' E 029°13'6 6.3
2014-Sep-05 01:33N 40°49' E 029°06'7 6.4
2014-Sep-05 00:32N 40°55' E 029°01'  
2014-Sep-02 01:33N 46°36' E 031°41'7 6.9
2014-Sep-02 00:33N 46°35' E 031°51'7 6.8
2014-Sep-01 23:33N 46°33' E 032°01'6 6.4
2014-Sep-01 22:33N 46°32' E 032°10'9 6.4
2014-Sep-01 21:14N 46°33' E 032°22'  
Track history (hours):
 
Tides and Currents Weather Stations Pressure Air Temp Water Temp Dewpoint Dewpoint Depression Visibility Wind Speed Wind Dir Waves Ship Positions

Kyme

Last reported at 2014-Sep-11 02:32 UTC. Time now 2014-Sep-17 23:38 UTC.
Position N 46°33' E 032°16'.

Length 114 m; draft 2 m.

Type: Cargo ship. MMSI: 514283000.

Date/timePositionNaut miles runAvg speedWind from/ knotsBaromVisibWave heightAir tempDewpointWater temp
2014-Sep-11 02:32N 46°33' E 032°16'7 7.1
2014-Sep-11 01:33N 46°32' E 032°06'7 7.0
2014-Sep-11 00:33N 46°34' E 031°57'7 6.8
2014-Sep-10 23:33N 46°35' E 031°47'7 6.5
2014-Sep-10 22:26N 46°35' E 031°36'26 6.7
2014-Sep-10 18:29N 46°32' E 030°58'6 6.2
2014-Sep-10 17:33N 46°26' E 030°57'7 6.5
2014-Sep-10 16:28N 46°19' E 030°58'94 7.0
2014-Sep-10 03:03N 44°54' E 030°00'  
2014-Sep-05 16:31N 40°46' E 029°33'3 2.3
2014-Sep-05 15:22N 40°45' E 029°30'3 0.6
2014-Sep-05 10:20N 40°46' E 029°26'0 0.1
2014-Sep-05 09:14N 40°46' E 029°26'1 0.1
2014-Sep-05 04:10N 40°45' E 029°26'4 6.0
2014-Sep-05 03:33N 40°44' E 029°21'6 6.4
2014-Sep-05 02:33N 40°46' E 029°13'6 6.3
2014-Sep-05 01:33N 40°49' E 029°06'7 6.4
2014-Sep-05 00:32N 40°55' E 029°01'  
2014-Sep-02 01:33N 46°36' E 031°41'7 6.9
2014-Sep-02 00:33N 46°35' E 031°51'7 6.8
2014-Sep-01 23:33N 46°33' E 032°01'6 6.4
2014-Sep-01 22:33N 46°32' E 032°10'9 6.4
2014-Sep-01 21:14N 46°33' E 032°22'  

Dump ship's entire track history